createdAt,value
2023-01-13T00:01:27.934Z,8.97
2023-01-13T00:03:56.578Z,8.95
2023-01-13T00:06:26.160Z,8.95
2023-01-13T00:08:54.576Z,8.91
2023-01-13T00:11:22.374Z,8.88
2023-01-13T00:13:49.519Z,8.83
2023-01-13T00:16:18.863Z,8.80
2023-01-13T00:18:46.509Z,8.80
2023-01-13T00:21:20.452Z,8.75
2023-01-13T00:23:48.298Z,8.70
2023-01-13T00:26:25.064Z,8.64
2023-01-13T00:28:58.197Z,8.64
2023-01-13T00:31:25.832Z,8.65
2023-01-13T00:33:56.473Z,8.69
2023-01-13T00:36:23.676Z,8.69
2023-01-13T00:38:50.787Z,8.65
2023-01-13T00:41:22.262Z,8.60
2023-01-13T00:43:50.670Z,8.57
2023-01-13T00:46:22.079Z,8.49
2023-01-13T00:48:49.728Z,8.46
2023-01-13T00:51:21.389Z,8.40
2023-01-13T00:53:51.675Z,8.37
2023-01-13T00:56:38.439Z,8.32
2023-01-13T00:59:09.823Z,8.28
2023-01-13T01:01:36.989Z,8.27
2023-01-13T01:04:04.372Z,8.21
2023-01-13T01:06:31.485Z,8.18
2023-01-13T01:08:58.700Z,8.16
2023-01-13T01:11:30.150Z,8.14
2023-01-13T01:14:01.584Z,8.12
2023-01-13T01:16:30.867Z,8.05
2023-01-13T01:18:58.757Z,8.04
2023-01-13T01:21:28.417Z,8.02
2023-01-13T01:23:58.109Z,8.02
2023-01-13T01:26:27.458Z,8.04
2023-01-13T01:28:55.402Z,8.09
2023-01-13T01:31:32.223Z,8.17
2023-01-13T01:34:00.712Z,8.22
2023-01-13T01:36:30.219Z,8.26
2023-01-13T01:38:59.286Z,8.29
2023-01-13T01:41:31.733Z,8.26
2023-01-13T01:44:28.529Z,8.26
2023-01-13T01:46:57.128Z,8.23
2023-01-13T01:49:30.179Z,8.20
2023-01-13T01:52:06.538Z,8.16
2023-01-13T01:54:48.169Z,8.13
2023-01-13T01:57:23.678Z,8.09
2023-01-13T01:59:51.182Z,8.07
2023-01-13T02:02:18.696Z,8.04
2023-01-13T02:04:53.415Z,8.01
2023-01-13T02:07:28.753Z,7.98
2023-01-13T02:10:01.145Z,7.97
2023-01-13T02:12:29.523Z,7.97
2023-01-13T02:15:05.619Z,7.97
2023-01-13T02:18:08.740Z,7.99
2023-01-13T02:20:59.555Z,7.95
2023-01-13T02:24:24.301Z,7.89
2023-01-13T02:27:26.806Z,7.87
2023-01-13T02:30:49.632Z,7.84
2023-01-13T02:33:50.480Z,7.81
2023-01-13T02:36:33.253Z,7.74
2023-01-13T02:39:13.085Z,7.71
2023-01-13T02:42:13.192Z,7.67
2023-01-13T02:44:49.860Z,7.66
2023-01-13T02:47:25.614Z,7.66
2023-01-13T02:50:11.054Z,7.64
2023-01-13T02:52:46.366Z,7.60
2023-01-13T02:55:22.068Z,7.57
2023-01-13T02:57:52.617Z,7.52
2023-01-13T03:00:20.702Z,7.53
2023-01-13T03:02:49.305Z,7.55
2023-01-13T03:05:18.219Z,7.57
2023-01-13T03:08:17.879Z,7.61
2023-01-13T03:11:03.152Z,7.64
2023-01-13T03:14:07.988Z,7.65
2023-01-13T03:16:53.374Z,7.70
2023-01-13T03:19:29.709Z,7.73
2023-01-13T03:22:09.639Z,7.74
2023-01-13T03:24:46.354Z,7.73
2023-01-13T03:27:36.509Z,7.74
2023-01-13T03:30:09.745Z,7.75
2023-01-13T03:32:46.438Z,7.78
2023-01-13T03:35:30.722Z,7.80
2023-01-13T03:38:13.423Z,7.82
2023-01-13T03:40:51.303Z,7.83
2023-01-13T03:43:55.394Z,7.85
2023-01-13T03:46:38.958Z,7.84
2023-01-13T03:49:12.225Z,7.83
2023-01-13T03:51:47.750Z,7.85
2023-01-13T03:54:20.061Z,7.86
2023-01-13T03:57:04.553Z,7.87
2023-01-13T03:59:41.432Z,7.86
2023-01-13T04:02:27.500Z,7.85
2023-01-13T04:05:01.150Z,7.88
2023-01-13T04:07:57.660Z,7.85
2023-01-13T04:10:34.732Z,7.88
2023-01-13T04:13:08.821Z,7.89
2023-01-13T04:15:42.205Z,7.91
2023-01-13T04:18:27.382Z,7.91
2023-01-13T04:21:00.332Z,7.97
2023-01-13T04:23:28.655Z,8.02
2023-01-13T04:25:56.506Z,8.04
2023-01-13T04:28:24.283Z,8.08
2023-01-13T04:30:51.617Z,8.14
2023-01-13T04:33:20.484Z,8.16
2023-01-13T04:35:48.447Z,8.19
2023-01-13T04:38:18.272Z,8.17
2023-01-13T04:40:45.629Z,8.16
2023-01-13T04:43:13.309Z,8.15
2023-01-13T04:45:40.329Z,8.14
2023-01-13T04:48:07.350Z,8.13
2023-01-13T04:50:34.541Z,8.09
2023-01-13T04:53:01.640Z,8.04
2023-01-13T04:55:29.146Z,7.99
2023-01-13T04:57:56.093Z,7.98
2023-01-13T05:00:23.872Z,7.96
2023-01-13T05:02:51.940Z,7.96
2023-01-13T05:05:19.529Z,7.93
2023-01-13T05:07:46.635Z,7.90
2023-01-13T05:10:13.993Z,7.89
2023-01-13T05:13:00.194Z,7.88
2023-01-13T05:15:46.180Z,7.86
2023-01-13T05:18:13.635Z,7.81
2023-01-13T05:20:40.675Z,7.75
2023-01-13T05:23:26.857Z,7.69
2023-01-13T05:25:53.896Z,7.63
2023-01-13T05:28:21.207Z,7.58
2023-01-13T05:30:52.601Z,7.52
2023-01-13T05:33:22.824Z,7.47
2023-01-13T05:35:49.853Z,7.43
2023-01-13T05:38:18.059Z,7.39
2023-01-13T05:41:04.219Z,7.36
2023-01-13T05:43:32.950Z,7.37
2023-01-13T05:46:07.956Z,7.44
2023-01-13T05:48:39.523Z,7.59
2023-01-13T05:51:10.492Z,7.73
2023-01-13T05:53:37.868Z,7.84
2023-01-13T05:56:07.522Z,8.00
2023-01-13T05:58:35.220Z,8.05
2023-01-13T06:01:07.566Z,8.10
2023-01-13T06:03:35.491Z,8.23
2023-01-13T06:06:04.175Z,8.33
2023-01-13T06:08:32.645Z,8.36
2023-01-13T06:10:59.956Z,8.37
2023-01-13T06:13:27.426Z,8.37
2023-01-13T06:15:59.285Z,8.36
2023-01-13T06:18:27.326Z,8.40
2023-01-13T06:20:54.481Z,8.44
2023-01-13T06:23:21.554Z,8.43
2023-01-13T06:26:29.526Z,8.38
2023-01-13T06:28:56.716Z,8.28
2023-01-13T06:31:25.942Z,8.21
2023-01-13T06:34:17.024Z,8.12
2023-01-13T06:36:52.166Z,7.99
2023-01-13T06:39:28.118Z,7.82
2023-01-13T06:42:13.854Z,7.63
2023-01-13T06:44:40.997Z,7.50
2023-01-13T06:47:08.546Z,7.43
2023-01-13T06:49:35.591Z,7.36
2023-01-13T06:52:02.727Z,7.32
2023-01-13T06:54:29.750Z,7.27
2023-01-13T06:56:56.970Z,7.28
2023-01-13T06:59:25.315Z,7.22
2023-01-13T07:01:52.756Z,7.19
2023-01-13T07:04:19.882Z,7.14
2023-01-13T07:06:46.947Z,7.09
2023-01-13T07:09:13.994Z,7.07
2023-01-13T07:11:41.277Z,7.04
2023-01-13T07:14:27.434Z,7.02
2023-01-13T07:16:54.679Z,6.99
2023-01-13T07:19:23.949Z,6.98
2023-01-13T07:21:52.620Z,7.01
2023-01-13T07:24:20.581Z,7.02
2023-01-13T07:26:47.908Z,7.07
2023-01-13T07:29:14.930Z,7.17
2023-01-13T07:31:42.080Z,7.26
2023-01-13T07:34:09.152Z,7.34
2023-01-13T07:36:36.540Z,7.36
2023-01-13T07:39:04.036Z,7.43
2023-01-13T07:41:49.725Z,7.45
2023-01-13T07:44:17.136Z,7.44
2023-01-13T07:46:44.434Z,7.38
2023-01-13T07:49:11.765Z,7.39
2023-01-13T07:51:39.925Z,7.33
2023-01-13T07:54:07.280Z,7.30
2023-01-13T07:56:34.875Z,7.26
2023-01-13T07:59:02.797Z,7.21
2023-01-13T08:01:31.839Z,7.20
2023-01-13T08:03:59.231Z,7.21
2023-01-13T08:06:27.118Z,7.20
2023-01-13T08:08:54.249Z,7.20
2023-01-13T08:11:23.507Z,7.21
2023-01-13T08:13:54.980Z,7.24
2023-01-13T08:16:22.098Z,7.25
2023-01-13T08:18:49.199Z,7.28
2023-01-13T08:21:16.728Z,7.31
2023-01-13T08:23:45.289Z,7.32
2023-01-13T08:26:17.370Z,7.33
2023-01-13T08:28:46.143Z,7.39
2023-01-13T08:31:16.541Z,7.39
2023-01-13T08:33:44.423Z,7.43
2023-01-13T08:36:12.649Z,7.48
2023-01-13T08:38:42.423Z,7.53
2023-01-13T08:41:12.565Z,7.57
2023-01-13T08:43:39.683Z,7.60
2023-01-13T08:46:06.956Z,7.61
2023-01-13T08:48:34.416Z,7.60
2023-01-13T08:51:05.653Z,7.65
2023-01-13T08:53:32.908Z,7.68
2023-01-13T08:55:59.856Z,7.70
2023-01-13T08:58:27.004Z,7.71
2023-01-13T09:00:54.117Z,7.74
2023-01-13T09:03:21.207Z,7.75
2023-01-13T09:05:48.209Z,7.81
2023-01-13T09:08:15.270Z,7.82
2023-01-13T09:10:42.418Z,7.83
2023-01-13T09:13:13.479Z,7.89
2023-01-13T09:15:46.715Z,7.98
2023-01-13T09:18:14.184Z,8.05
2023-01-13T09:20:41.492Z,8.05
2023-01-13T09:23:10.629Z,8.07
2023-01-13T09:25:38.988Z,8.12
2023-01-13T09:28:08.494Z,8.20
2023-01-13T09:30:37.788Z,8.28
2023-01-13T09:33:23.495Z,8.35
2023-01-13T09:35:50.624Z,8.52
2023-01-13T09:38:17.667Z,8.69
2023-01-13T09:40:49.642Z,8.78
2023-01-13T09:43:52.096Z,8.89
2023-01-13T09:46:47.321Z,8.93
2023-01-13T09:49:35.887Z,8.90
2023-01-13T09:52:15.029Z,8.85
2023-01-13T09:54:49.571Z,8.84
2023-01-13T09:57:19.584Z,8.79
2023-01-13T09:59:47.901Z,8.79
2023-01-13T10:02:27.053Z,8.80
2023-01-13T10:05:28.359Z,8.77
2023-01-13T10:08:18.389Z,8.80
2023-01-13T10:10:49.889Z,8.83
2023-01-13T10:13:28.636Z,8.85
2023-01-13T10:16:26.246Z,8.87
2023-01-13T10:19:16.028Z,8.88
2023-01-13T10:22:42.734Z,9.06
2023-01-13T10:25:36.910Z,9.17
2023-01-13T10:28:19.405Z,9.21
2023-01-13T10:30:47.835Z,9.17
2023-01-13T10:33:22.794Z,9.12
2023-01-13T10:35:55.076Z,9.06
2023-01-13T10:38:30.009Z,9.01
2023-01-13T10:41:20.004Z,8.92
2023-01-13T10:44:01.397Z,8.73
2023-01-13T10:46:31.627Z,8.65
2023-01-13T10:49:25.807Z,8.59
2023-01-13T10:51:52.835Z,8.53
2023-01-13T10:54:23.572Z,8.46
2023-01-13T10:57:25.109Z,8.36
2023-01-13T10:59:53.124Z,8.21
2023-01-13T11:02:30.684Z,8.13
2023-01-13T11:04:58.204Z,8.06
2023-01-13T11:08:01.025Z,8.01
2023-01-13T11:10:32.615Z,8.00
2023-01-13T11:13:09.978Z,7.96
2023-01-13T11:16:13.088Z,7.96
2023-01-13T11:19:02.296Z,7.97
2023-01-13T11:21:41.368Z,8.05
2023-01-13T11:24:36.860Z,8.13
2023-01-13T11:27:14.531Z,8.20
2023-01-13T11:30:16.103Z,8.21
2023-01-13T11:33:04.590Z,8.18
2023-01-13T11:35:54.425Z,8.17
2023-01-13T11:38:47.880Z,8.21
2023-01-13T11:41:32.567Z,8.21
2023-01-13T11:44:16.104Z,8.22
2023-01-13T11:46:43.559Z,8.26
2023-01-13T11:49:26.129Z,8.37
2023-01-13T11:52:06.810Z,8.47
2023-01-13T11:55:15.608Z,8.55
2023-01-13T11:58:18.869Z,8.73
2023-01-13T12:01:22.312Z,8.85
2023-01-13T12:04:20.875Z,8.97
2023-01-13T12:07:12.756Z,9.04
2023-01-13T12:10:00.804Z,9.08
2023-01-13T12:13:01.738Z,9.05
2023-01-13T12:15:36.196Z,8.97
2023-01-13T12:18:11.481Z,9.00
2023-01-13T12:20:47.225Z,8.97
2023-01-13T12:23:46.232Z,8.87
2023-01-13T12:26:16.774Z,8.74
2023-01-13T12:29:04.797Z,8.66
2023-01-13T12:31:39.501Z,8.51
2023-01-13T12:34:12.589Z,8.29
2023-01-13T12:37:02.058Z,8.10
2023-01-13T12:40:01.604Z,7.96
2023-01-13T12:42:57.919Z,7.86
2023-01-13T12:45:32.127Z,7.82
2023-01-13T12:48:00.428Z,7.76
2023-01-13T12:50:27.496Z,7.71
2023-01-13T12:53:34.685Z,7.67
2023-01-13T12:56:35.407Z,7.69
2023-01-13T12:59:33.900Z,7.76
2023-01-13T13:02:27.696Z,7.75
2023-01-13T13:05:01.166Z,7.76
2023-01-13T13:07:31.148Z,7.75
2023-01-13T13:10:27.621Z,7.72
2023-01-13T13:13:19.266Z,7.70
2023-01-13T13:15:51.967Z,7.71
2023-01-13T13:18:21.599Z,7.73
2023-01-13T13:21:07.331Z,7.76
2023-01-13T13:23:37.319Z,7.78
2023-01-13T13:26:24.719Z,7.83
2023-01-13T13:29:19.521Z,7.89
2023-01-13T13:32:27.665Z,7.96
2023-01-13T13:35:28.250Z,8.03
2023-01-13T13:38:30.428Z,8.08
2023-01-13T13:41:16.502Z,8.14
2023-01-13T13:44:04.515Z,8.17
2023-01-13T13:46:47.439Z,8.20
2023-01-13T13:49:46.637Z,8.29
2023-01-13T13:52:26.640Z,8.34
2023-01-13T13:55:02.688Z,8.33
2023-01-13T13:57:40.041Z,8.32
2023-01-13T14:00:34.304Z,8.29
2023-01-13T14:03:07.676Z,8.26
2023-01-13T14:05:37.034Z,8.24
2023-01-13T14:08:16.607Z,8.24
2023-01-13T14:10:46.337Z,8.26
2023-01-13T14:13:31.689Z,8.30
2023-01-13T14:16:04.536Z,8.30
2023-01-13T14:18:44.368Z,8.31
2023-01-13T14:21:20.842Z,8.32
2023-01-13T14:23:57.912Z,8.30
2023-01-13T14:26:31.544Z,8.29
2023-01-13T14:29:01.533Z,8.29
2023-01-13T14:31:30.294Z,8.34
2023-01-13T14:34:02.821Z,8.36
2023-01-13T14:36:51.288Z,8.40
2023-01-13T14:39:18.357Z,8.43
2023-01-13T14:41:48.227Z,8.45
2023-01-13T14:44:34.366Z,8.47
2023-01-13T14:47:19.679Z,8.49
2023-01-13T14:50:03.958Z,8.50
2023-01-13T14:52:37.079Z,8.49
2023-01-13T14:55:08.210Z,8.49
2023-01-13T14:57:39.442Z,8.53
2023-01-13T15:00:23.534Z,8.54
2023-01-13T15:03:07.811Z,8.53
2023-01-13T15:05:38.454Z,8.51
2023-01-13T15:08:11.503Z,8.50
2023-01-13T15:10:52.910Z,8.50
2023-01-13T15:13:41.137Z,8.49
2023-01-13T15:16:21.516Z,8.47
2023-01-13T15:18:49.071Z,8.45
2023-01-13T15:21:17.479Z,8.45
2023-01-13T15:23:44.816Z,8.45
2023-01-13T15:26:20.416Z,8.41
2023-01-13T15:28:48.690Z,8.43
2023-01-13T15:31:18.125Z,8.43
2023-01-13T15:33:45.365Z,8.42
2023-01-13T15:36:31.903Z,8.44
2023-01-13T15:39:00.911Z,8.42
2023-01-13T15:41:47.240Z,8.42
2023-01-13T15:44:36.017Z,8.40
2023-01-13T15:47:08.757Z,8.37
2023-01-13T15:49:46.461Z,8.38
2023-01-13T15:52:22.737Z,8.35
2023-01-13T15:54:51.648Z,8.35
2023-01-13T15:57:35.610Z,8.34
2023-01-13T16:00:14.950Z,8.32
2023-01-13T16:02:44.454Z,8.28
2023-01-13T16:05:12.491Z,8.26
2023-01-13T16:07:39.563Z,8.25
2023-01-13T16:10:19.844Z,8.28
2023-01-13T16:12:46.904Z,8.28
2023-01-13T16:15:16.778Z,8.29
2023-01-13T16:17:46.378Z,8.28
2023-01-13T16:20:18.036Z,8.27
2023-01-13T16:22:47.795Z,8.24
2023-01-13T16:25:22.765Z,8.26
2023-01-13T16:27:51.095Z,8.27
2023-01-13T16:30:34.019Z,8.27
2023-01-13T16:33:01.548Z,8.27
2023-01-13T16:35:31.884Z,8.30
2023-01-13T16:37:59.948Z,8.30
2023-01-13T16:40:31.163Z,8.27
2023-01-13T16:43:00.964Z,8.26
2023-01-13T16:45:28.348Z,8.25
2023-01-13T16:47:55.386Z,8.25
2023-01-13T16:50:40.955Z,8.25
2023-01-13T16:53:10.071Z,8.21
2023-01-13T16:55:39.866Z,8.18
2023-01-13T16:58:17.677Z,8.15
2023-01-13T17:00:46.897Z,8.11
2023-01-13T17:03:15.060Z,8.05
2023-01-13T17:05:44.365Z,8.01
2023-01-13T17:08:17.910Z,7.98
2023-01-13T17:10:46.989Z,7.96
2023-01-13T17:13:16.789Z,7.97
2023-01-13T17:15:45.878Z,7.98
2023-01-13T17:18:13.527Z,7.97
2023-01-13T17:20:41.350Z,7.99
2023-01-13T17:23:08.539Z,7.99
2023-01-13T17:25:35.601Z,8.00
2023-01-13T17:28:03.216Z,8.01
2023-01-13T17:30:30.198Z,8.01
2023-01-13T17:32:57.217Z,8.00
2023-01-13T17:35:25.068Z,7.98
2023-01-13T17:37:53.924Z,7.96
2023-01-13T17:40:21.265Z,7.96
2023-01-13T17:42:48.292Z,7.94
2023-01-13T17:45:16.295Z,7.91
2023-01-13T17:47:43.377Z,7.87
2023-01-13T17:50:10.905Z,7.85
2023-01-13T17:52:37.907Z,7.82
2023-01-13T17:55:08.429Z,7.80
2023-01-13T17:57:35.621Z,7.80
2023-01-13T18:00:05.454Z,7.77
2023-01-13T18:02:39.257Z,7.76
2023-01-13T18:05:06.966Z,7.75
2023-01-13T18:07:38.802Z,7.74
2023-01-13T18:10:06.716Z,7.69
2023-01-13T18:12:34.832Z,7.69
2023-01-13T18:15:01.882Z,7.68
2023-01-13T18:17:28.865Z,7.72
2023-01-13T18:20:14.704Z,7.77
2023-01-13T18:23:00.614Z,7.71
2023-01-13T18:25:45.909Z,7.53
2023-01-13T18:28:12.909Z,7.21
2023-01-13T18:30:39.903Z,6.96
2023-01-13T18:33:06.945Z,6.83
2023-01-13T18:35:33.945Z,6.70
2023-01-13T18:38:00.959Z,6.60
2023-01-13T18:40:27.937Z,6.57
2023-01-13T18:42:59.193Z,6.54
2023-01-13T18:45:30.590Z,6.51
2023-01-13T18:48:01.990Z,6.47
2023-01-13T18:50:29.840Z,6.44
2023-01-13T18:52:57.434Z,6.41
2023-01-13T18:55:25.527Z,6.36
2023-01-13T18:57:53.506Z,6.33
2023-01-13T19:00:22.550Z,6.30
2023-01-13T19:05:35.545Z,6.16
2023-01-13T19:08:03.709Z,6.13
2023-01-13T19:10:32.369Z,6.14
2023-01-13T19:13:01.193Z,6.10
2023-01-13T19:15:28.319Z,6.13
2023-01-13T19:17:55.399Z,6.14
2023-01-13T19:20:22.367Z,6.16
2023-01-13T19:22:54.077Z,6.18
2023-01-13T19:25:21.115Z,6.19
2023-01-13T19:27:48.056Z,6.22
2023-01-13T19:30:15.013Z,6.26
2023-01-13T19:32:42.018Z,6.28
2023-01-13T19:35:09.252Z,6.30
2023-01-13T19:37:36.988Z,6.35
2023-01-13T19:40:09.235Z,6.38
2023-01-13T19:42:55.535Z,6.39
2023-01-13T19:45:31.963Z,6.41
2023-01-13T19:48:05.180Z,6.45
2023-01-13T19:50:40.290Z,6.47
2023-01-13T19:53:15.732Z,6.50
2023-01-13T19:55:51.272Z,6.55
2023-01-13T19:58:23.941Z,6.62
2023-01-13T20:00:54.995Z,6.66
2023-01-13T20:03:26.908Z,6.73
2023-01-13T20:05:54.912Z,6.79
2023-01-13T20:08:22.977Z,6.82
2023-01-13T20:10:49.936Z,6.84
2023-01-13T20:13:16.979Z,6.86
2023-01-13T20:15:44.293Z,6.88
2023-01-13T20:18:11.390Z,6.89
2023-01-13T20:20:38.287Z,6.90
2023-01-13T20:23:06.545Z,6.89
2023-01-13T20:25:33.546Z,6.90
2023-01-13T20:28:02.193Z,6.91
2023-01-13T20:30:29.204Z,6.93
2023-01-13T20:32:56.250Z,6.92
2023-01-13T20:35:24.377Z,6.93
2023-01-13T20:37:51.380Z,6.90
2023-01-13T20:40:18.760Z,6.86
2023-01-13T20:42:46.606Z,6.83
2023-01-13T20:45:18.060Z,6.84
2023-01-13T20:47:47.934Z,6.87
2023-01-13T20:50:19.408Z,6.86
2023-01-13T20:52:47.567Z,6.83
2023-01-13T20:55:14.795Z,6.79
2023-01-13T20:57:42.102Z,6.76
2023-01-13T21:00:10.566Z,6.71
2023-01-13T21:02:40.822Z,6.69
2023-01-13T21:05:09.245Z,6.72
2023-01-13T21:07:36.271Z,6.76
2023-01-13T21:10:04.631Z,6.81
2023-01-13T21:12:49.953Z,6.84
2023-01-13T21:15:17.761Z,6.87
2023-01-13T21:18:06.028Z,6.90
2023-01-13T21:20:35.506Z,6.93
2023-01-13T21:23:04.386Z,6.97
2023-01-13T21:25:35.534Z,7.01
2023-01-13T21:28:06.617Z,7.04
2023-01-13T21:30:38.516Z,7.06
2023-01-13T21:33:06.249Z,7.07
2023-01-13T21:35:33.826Z,7.07
2023-01-13T21:38:00.815Z,7.02
2023-01-13T21:40:27.957Z,6.99
2023-01-13T21:43:13.821Z,6.98
2023-01-13T21:45:59.532Z,6.98
2023-01-13T21:48:26.650Z,6.96
2023-01-13T21:50:53.742Z,6.96
2023-01-13T21:53:20.820Z,6.98
2023-01-13T21:55:52.430Z,6.99
2023-01-13T21:58:19.495Z,7.01
2023-01-13T22:00:49.086Z,7.05
2023-01-13T22:03:18.482Z,7.08
2023-01-13T22:05:46.328Z,7.11
2023-01-13T22:08:13.583Z,7.12
2023-01-13T22:11:00.221Z,7.15
2023-01-13T22:13:47.938Z,7.15
2023-01-13T22:16:16.128Z,7.17
2023-01-13T22:18:43.236Z,7.18
2023-01-13T22:21:11.020Z,7.21
2023-01-13T22:23:38.123Z,7.22
2023-01-13T22:26:07.360Z,7.22
2023-01-13T22:28:40.676Z,7.22
2023-01-13T22:31:21.159Z,7.22
2023-01-13T22:33:48.386Z,7.26
2023-01-13T22:36:15.821Z,7.27
2023-01-13T22:38:42.821Z,7.28
2023-01-13T22:41:10.901Z,7.31
2023-01-13T22:43:38.681Z,7.33
2023-01-13T22:46:10.076Z,7.33
2023-01-13T22:48:38.009Z,7.33
2023-01-13T22:51:14.889Z,7.32
2023-01-13T22:53:42.975Z,7.29
2023-01-13T22:56:18.357Z,7.27
2023-01-13T22:58:45.519Z,7.23
2023-01-13T23:01:16.866Z,7.15
2023-01-13T23:03:47.515Z,7.09
2023-01-13T23:06:15.960Z,7.03
2023-01-13T23:08:42.930Z,6.96
2023-01-13T23:11:12.946Z,6.89
2023-01-13T23:13:42.826Z,6.81
2023-01-13T23:16:17.108Z,6.73
2023-01-13T23:18:48.582Z,6.65
2023-01-13T23:21:21.683Z,6.61
2023-01-13T23:23:49.474Z,6.56
2023-01-13T23:26:17.246Z,6.52
2023-01-13T23:28:44.494Z,6.47
2023-01-13T23:31:19.093Z,6.46
2023-01-13T23:33:47.579Z,6.41
2023-01-13T23:36:21.426Z,6.38
2023-01-13T23:38:48.475Z,6.35
2023-01-13T23:41:20.391Z,6.36
2023-01-13T23:43:59.999Z,6.33
2023-01-13T23:46:30.889Z,6.31
2023-01-13T23:48:57.958Z,6.28
2023-01-13T23:51:26.492Z,6.27
2023-01-13T23:53:54.487Z,6.28
2023-01-13T23:56:30.921Z,6.27
2023-01-13T23:58:57.998Z,6.26
